Time;durP1;ratioP1;P1;durP2;ratioP2;P2;SDS_P1;SDS_P2;PMS_P1;PMS_P2;Temp;Humidity;BMP_temperature;BMP_pressure;BME280_temperature;BME280_humidity;BME280_pressure;Samples;Min_cycle;Max_cycle;Signal;HPM_P1;HPM_P2
2023/03/17 00:02:10;;;;;;;5.28;2.97;;;;;;;8.92;64.22;100637.75;4995443;28;20029;-77
2023/03/17 00:04:38;;;;;;;8.77;3.55;;;;;;;8.91;66.62;100637.94;5015429;28;20029;-78
2023/03/17 00:07:21;;;;;;;5.10;3.28;;;;;;;8.89;65.93;100640.88;5017031;28;20041;-79
2023/03/17 00:09:48;;;;;;;8.35;3.65;;;;;;;8.87;65.58;100640.28;5016668;28;20045;-79
2023/03/17 00:12:16;;;;;;;6.65;3.85;;;;;;;8.83;65.62;100631.81;5008335;28;20030;-76
2023/03/17 00:14:43;;;;;;;4.90;3.15;;;;;;;8.84;64.45;100638.03;5015543;28;20069;-77
2023/03/17 00:17:23;;;;;;;6.47;3.50;;;;;;;8.86;64.90;100634.06;5034372;28;20026;-78
2023/03/17 00:19:52;;;;;;;9.25;3.28;;;;;;;8.83;65.28;100622.88;5016308;28;20021;-77
2023/03/17 00:22:46;;;;;;;6.68;3.75;;;;;;;8.74;66.70;100621.47;5015902;28;20128;-76
2023/03/17 00:25:26;;;;;;;6.85;3.28;;;;;;;8.78;66.26;100610.03;4993747;28;20112;-77
2023/03/17 00:28:12;;;;;;;;;;;;;;;;;;;;;
2023/03/17 00:37:04;;;;;;;7.40;3.90;;;;;;;8.77;65.77;100600.31;5033971;28;20127;-77
2023/03/17 00:39:54;;;;;;;;;;;;;;;;;;;;;
2023/03/17 00:42:42;;;;;;;5.97;3.67;;;;;;;8.66;65.56;100596.41;5012787;28;20055;-79
2023/03/17 00:45:26;;;;;;;6.47;3.70;;;;;;;8.61;66.49;100596.25;4985106;28;20045;-78
2023/03/17 00:49:14;;;;;;;6.15;3.42;;;;;;;8.68;66.18;100586.25;5010909;28;20041;-76
2023/03/17 00:52:32;;;;;;;;;;;;;;;;;;;;;
2023/03/17 00:55:52;;;;;;;6.85;3.35;;;;;;;8.68;68.56;100594.34;5020904;28;20046;-77
2023/03/17 00:59:10;;;;;;;;;;;;;;;;;;;;;
2023/03/17 01:05:23;;;;;;;5.43;3.65;;;;;;;8.54;67.98;100586.56;5032707;28;20087;-79
2023/03/17 01:09:17;;;;;;;;;;;;;;;;;;;;;
2023/03/17 01:11:38;;;;;;;7.13;3.60;;;;;;;8.48;68.39;100589.09;4980189;28;20478;-77
2023/03/17 01:14:31;;;;;;;5.22;3.40;;;;;;;8.47;69.35;100582.03;5030895;28;20562;-76
2023/03/17 01:17:39;;;;;;;8.35;3.58;;;;;;;8.51;69.36;100588.66;5029873;28;20439;-76
2023/03/17 01:20:36;;;;;;;7.22;3.75;;;;;;;8.40;69.03;100575.81;5001732;28;20473;-79
2023/03/17 01:27:25;;;;;;;;;;;;;;;;;;;;;
2023/03/17 01:33:42;;;;;;;;;;;;;;;;;;;;;
2023/03/17 01:36:33;;;;;;;4.20;3.30;;;;;;;8.45;70.41;100567.13;4977783;28;20038;-78
2023/03/17 01:39:24;;;;;;;9.02;3.63;;;;;;;8.35;68.42;100564.88;5013835;28;20323;-77
2023/03/17 01:45:45;;;;;;;4.93;3.40;;;;;;;8.36;69.24;100550.34;5005119;28;20034;-78
2023/03/17 01:48:36;;;;;;;;;;;;;;;;;;;;;
2023/03/17 02:01:18;;;;;;;8.15;3.60;;;;;;;8.23;70.53;100542.31;4962301;28;20594;-79
2023/03/17 02:03:52;;;;;;;6.93;3.55;;;;;;;8.23;69.54;100540.47;4999834;28;20491;-76
2023/03/17 02:06:22;;;;;;;6.85;3.70;;;;;;;8.20;70.32;100534.69;4996441;28;20026;-77
2023/03/17 02:08:53;;;;;;;6.40;3.70;;;;;;;8.13;69.72;100534.72;4991777;28;20034;-78
2023/03/17 02:11:25;;;;;;;7.18;3.80;;;;;;;8.13;72.26;100526.66;4991679;28;20038;-78
2023/03/17 02:13:55;;;;;;;8.68;3.60;;;;;;;8.15;70.91;100527.25;5000585;28;20087;-76
2023/03/17 02:16:31;;;;;;;8.70;4.30;;;;;;;8.15;71.04;100524.53;5004616;28;20022;-77
2023/03/17 02:19:02;;;;;;;9.75;4.00;;;;;;;8.08;73.16;100521.91;4991800;28;20036;-76
2023/03/17 02:21:37;;;;;;;9.20;4.40;;;;;;;8.09;72.74;100528.13;4991861;28;20134;-77
2023/03/17 02:24:16;;;;;;;8.13;3.50;;;;;;;8.10;73.95;100529.78;5001662;28;20061;-76
2023/03/17 02:26:53;;;;;;;10.25;4.20;;;;;;;8.06;74.21;100524.00;4994858;28;20452;-78
2023/03/17 02:29:26;;;;;;;8.95;4.15;;;;;;;8.12;73.06;100530.38;5011255;28;20034;-78
2023/03/17 02:32:06;;;;;;;10.65;4.07;;;;;;;8.13;70.58;100521.25;4993521;28;21288;-76
2023/03/17 02:34:32;;;;;;;12.20;4.10;;;;;;;8.08;72.89;100513.81;4982585;28;20033;-77
2023/03/17 02:37:21;;;;;;;;;;;;;;;;;;;;;
2023/03/17 02:39:49;;;;;;;8.23;3.95;;;;;;;8.10;71.17;100509.03;4992514;28;20037;-76
2023/03/17 02:42:29;;;;;;;8.13;4.00;;;;;;;8.10;72.24;100503.63;4991058;28;20505;-76
2023/03/17 02:45:02;;;;;;;8.60;3.80;;;;;;;8.14;72.39;100509.44;5006843;28;20117;-76
2023/03/17 02:47:46;;;;;;;;;;;;;;;;;;;;;
2023/03/17 02:50:27;;;;;;;6.85;3.63;;;;;;;8.10;72.16;100492.03;5012490;28;20030;-78
2023/03/17 02:53:03;;;;;;;7.63;3.78;;;;;;;8.03;70.49;100491.25;4992504;28;20195;-78
2023/03/17 03:02:05;;;;;;;7.43;3.42;;;;;;;8.10;69.76;100492.84;4975147;28;20081;-77
2023/03/17 03:04:45;;;;;;;7.95;3.88;;;;;;;8.06;72.18;100498.91;4998960;28;20030;-77
2023/03/17 03:07:16;;;;;;;7.85;3.50;;;;;;;8.08;71.54;100505.75;4994736;28;20030;-78
2023/03/17 03:09:54;;;;;;;;;;;;;;;;;;;;;
2023/03/17 03:12:35;;;;;;;7.32;3.90;;;;;;;8.14;69.56;100504.06;4992685;28;20038;-78
2023/03/17 03:15:10;;;;;;;7.22;3.60;;;;;;;8.10;70.68;100487.47;4990751;28;20394;-77
2023/03/17 03:18:00;;;;;;;;;;;;;;;;;;;;;
2023/03/17 03:20:26;;;;;;;6.88;3.78;;;;;;;8.16;69.45;100496.56;5009420;28;20032;-79
2023/03/17 03:22:55;;;;;;;7.63;3.35;;;;;;;8.12;72.26;100496.19;5010692;28;20124;-78
2023/03/17 03:26:10;;;;;;;6.72;3.72;;;;;;;8.13;68.11;100507.78;4994445;28;20041;-77
2023/03/17 03:29:01;;;;;;;;;;;;;;;;;;;;;
2023/03/17 03:31:38;;;;;;;7.38;3.17;;;;;;;8.15;68.32;100498.44;4996111;28;20052;-77
2023/03/17 03:34:14;;;;;;;8.57;2.97;;;;;;;8.16;67.51;100496.56;5001142;28;20029;-78
2023/03/17 03:37:15;;;;;;;6.95;3.50;;;;;;;8.16;70.91;100501.94;4994652;28;20030;-78
2023/03/17 03:40:11;;;;;;;;;;;;;;;;;;;;;
2023/03/17 03:42:52;;;;;;;6.63;2.85;;;;;;;8.11;69.67;100515.25;4995262;28;20044;-79
2023/03/17 03:52:09;;;;;;;6.22;3.10;;;;;;;8.08;70.14;100518.41;5012137;28;20547;-77
2023/03/17 03:58:24;;;;;;;9.02;3.50;;;;;;;8.12;70.00;100536.59;4940591;28;20047;-78
2023/03/17 04:01:00;;;;;;;6.85;3.53;;;;;;;8.04;69.05;100525.25;4961956;28;20038;-78
2023/03/17 04:03:41;;;;;;;7.22;3.47;;;;;;;8.02;68.57;100532.72;4978580;28;20402;-76
2023/03/17 04:09:16;;;;;;;6.25;3.10;;;;;;;8.06;70.13;100529.41;4971745;28;20439;-79
2023/03/17 04:11:47;;;;;;;7.80;3.50;;;;;;;8.04;70.08;100525.25;4974785;28;20398;-76
2023/03/17 04:14:46;;;;;;;;;;;;;;;;;;;;;
2023/03/17 04:17:34;;;;;;;8.48;3.58;;;;;;;8.03;69.82;100526.28;4973313;28;20050;-79
2023/03/17 04:20:05;;;;;;;7.95;3.22;;;;;;;7.99;69.71;100526.72;4991604;28;20034;-76
2023/03/17 04:22:56;;;;;;;;;;;;;;;;;;;;;
2023/03/17 04:25:39;;;;;;;9.55;3.50;;;;;;;8.05;71.19;100530.44;5002763;28;20385;-77
2023/03/17 04:28:18;;;;;;;10.45;3.85;;;;;;;8.01;72.22;100536.47;5014558;28;20414;-77
2023/03/17 04:30:55;;;;;;;9.85;3.80;;;;;;;7.92;72.43;100527.81;5012788;28;20026;-79
2023/03/17 04:33:21;;;;;;;10.80;3.80;;;;;;;8.01;71.03;100528.38;5005261;28;20159;-79
2023/03/17 04:35:57;;;;;;;9.18;3.63;;;;;;;7.96;72.17;100527.16;4976620;28;20038;-78
2023/03/17 04:38:36;;;;;;;;;;;;;;;;;;;;;
2023/03/17 04:41:37;;;;;;;11.77;4.32;;;;;;;7.98;71.31;100526.94;4993392;28;20036;-78
2023/03/17 04:44:07;;;;;;;9.15;4.43;;;;;;;7.85;72.46;100535.94;4993087;28;20042;-76
2023/03/17 04:46:39;;;;;;;13.95;3.95;;;;;;;7.85;71.50;100530.53;4995515;28;20037;-78
2023/03/17 04:49:13;;;;;;;12.75;3.55;;;;;;;7.89;70.16;100531.75;5009898;28;20053;-78
2023/03/17 04:55:01;;;;;;;15.00;4.57;;;;;;;7.85;72.00;100522.47;5009776;28;20031;-76
2023/03/17 04:57:35;;;;;;;15.02;4.35;;;;;;;7.83;71.90;100529.91;4992602;28;20516;-79
2023/03/17 05:00:32;;;;;;;;;;;;;;;;;;;;;
2023/03/17 05:03:35;;;;;;;;;;;;;;;;;;;;;
2023/03/17 05:06:23;;;;;;;14.77;4.55;;;;;;;7.79;71.66;100512.53;5010750;28;20040;-76
2023/03/17 05:09:31;;;;;;;16.52;4.40;;;;;;;7.85;73.32;100514.38;4996164;28;20026;-78
2023/03/17 05:13:30;;;;;;;;;;;;;;;;;;;;;
2023/03/17 05:27:28;;;;;;;;;;;;;;;;;;;;;
2023/03/17 05:52:21;;;;;;;15.55;3.95;;;;;;;7.85;74.88;100511.69;4781222;29;20161;-78
2023/03/17 06:03:53;;;;;;;;;;;;;;;;;;;;;
2023/03/17 06:07:26;;;;;;;;;;;;;;;;;;;;;
2023/03/17 06:14:08;;;;;;;;;;;;;;;;;;;;;
2023/03/17 06:21:06;;;;;;;;;;;;;;;;;;;;;
2023/03/17 06:27:56;;;;;;;;;;;;;;;;;;;;;
2023/03/17 06:34:20;;;;;;;15.32;4.28;;;;;;;7.87;77.68;100530.31;4857050;29;20432;-76
2023/03/17 07:05:55;;;;;;;;;;;;;;;;;;;;;
2023/03/17 07:09:21;;;;;;;;;;;;;;;;;;;;;
2023/03/17 07:18:15;;;;;;;8.35;3.60;;;;;;;8.32;77.66;100533.78;4735130;30;20593;-76
2023/03/17 07:21:02;;;;;;;11.88;4.35;;;;;;;8.47;76.08;100535.34;4794291;29;20097;-76
2023/03/17 07:24:26;;;;;;;10.10;3.90;;;;;;;8.47;76.69;100540.75;4866580;29;20091;-76
2023/03/17 07:27:31;;;;;;;8.35;3.60;;;;;;;8.49;76.06;100528.69;4855777;29;20127;-76
2023/03/17 07:29:59;;;;;;;7.53;3.58;;;;;;;8.55;72.55;100521.63;4988943;28;20045;-76
2023/03/17 07:32:52;;;;;;;14.50;3.78;;;;;;;8.67;75.93;100525.25;5001683;28;20393;-77
2023/03/17 07:36:18;;;;;;;8.98;3.80;;;;;;;8.71;74.59;100508.63;4989261;28;20050;-78
2023/03/17 07:38:51;;;;;;;11.30;3.80;;;;;;;8.69;75.64;100506.97;4919694;29;20492;-75
2023/03/17 07:41:16;;;;;;;15.02;4.05;;;;;;;8.74;73.86;100508.19;4994596;28;20036;-75
2023/03/17 07:43:42;;;;;;;11.93;3.97;;;;;;;8.79;73.57;100511.88;4993235;28;20034;-77
2023/03/17 07:46:08;;;;;;;9.02;3.58;;;;;;;8.83;75.41;100512.25;4976868;28;20041;-74
2023/03/17 07:48:36;;;;;;;12.55;4.00;;;;;;;8.86;74.20;100511.78;4981851;28;20076;-74
2023/03/17 07:51:01;;;;;;;8.27;3.72;;;;;;;8.87;72.15;100516.16;5012848;28;20425;-74
2023/03/17 07:53:27;;;;;;;9.98;3.70;;;;;;;8.94;72.81;100525.03;4978756;28;20093;-72
2023/03/17 07:55:53;;;;;;;10.27;3.53;;;;;;;8.97;73.79;100516.47;4976623;28;20053;-78
2023/03/17 07:58:19;;;;;;;13.07;3.85;;;;;;;9.02;72.97;100527.41;4976852;28;20038;-75
2023/03/17 08:00:47;;;;;;;7.70;3.83;;;;;;;9.06;72.82;100533.22;4974687;28;20030;-76
2023/03/17 08:03:40;;;;;;;9.48;3.30;;;;;;;9.11;74.34;100541.47;4979992;28;20038;-78
2023/03/17 08:06:07;;;;;;;8.57;3.13;;;;;;;9.10;71.36;100534.41;5013459;28;20033;-74
2023/03/17 08:08:45;;;;;;;9.82;3.38;;;;;;;9.13;73.97;100527.75;4997215;28;20389;-77
2023/03/17 08:11:11;;;;;;;13.68;3.45;;;;;;;9.22;73.74;100521.00;4989048;28;20482;-77
2023/03/17 08:13:36;;;;;;;11.32;3.20;;;;;;;9.24;72.89;100527.00;4991257;28;20034;-74
2023/03/17 08:16:08;;;;;;;9.30;3.90;;;;;;;9.27;73.48;100529.25;4993988;28;20068;-76
2023/03/17 08:19:06;;;;;;;7.97;3.25;;;;;;;9.35;72.78;100537.06;4993969;28;20474;-75
2023/03/17 08:21:32;;;;;;;10.93;3.35;;;;;;;9.37;70.85;100534.94;4953464;28;20054;-72
2023/03/17 08:23:58;;;;;;;9.25;3.20;;;;;;;9.44;71.36;100536.78;4995679;28;20044;-73
2023/03/17 08:27:07;;;;;;;7.85;3.47;;;;;;;9.51;73.03;100540.19;4996965;28;20465;-77
2023/03/17 08:30:04;;;;;;;10.43;3.63;;;;;;;9.57;72.17;100525.78;4990947;28;20032;-79
2023/03/17 08:33:05;;;;;;;7.10;3.33;;;;;;;9.65;72.06;100532.78;4988552;28;20025;-76
2023/03/17 09:13:16;;;;;;;7.70;3.47;;;;;;;10.64;69.24;100505.38;4876901;29;20112;-74
2023/03/17 09:15:51;;;;;;;7.85;3.20;;;;;;;10.67;67.94;100513.03;4879723;29;20397;-77
2023/03/17 09:18:18;;;;;;;6.03;3.15;;;;;;;10.72;71.18;100513.16;4878099;29;20429;-76
2023/03/17 09:20:43;;;;;;;19.15;9.23;;;;;;;10.80;69.99;100510.09;4887633;29;20028;-76
2023/03/17 09:23:27;;;;;;;7.00;4.15;;;;;;;10.81;69.63;100506.34;4917183;29;20036;-79
2023/03/17 09:32:10;;;;;;;6.53;3.10;;;;;;;11.12;74.24;100507.00;4901860;29;20028;-75
2023/03/17 09:34:41;;;;;;;6.93;3.35;;;;;;;11.21;72.03;100503.97;4913815;29;20055;-78
2023/03/17 09:51:39;;;;;;;8.18;3.40;;;;;;;11.60;69.68;100501.53;4959668;28;20073;-80
2023/03/17 10:25:40;;;;;;;11.77;3.80;;;;;;;11.80;68.11;100549.88;5244466;23;20462;-78
2023/03/17 10:32:21;;;;;;;8.02;3.47;;;;;;;12.06;67.88;100551.22;4874702;29;20045;-81
2023/03/17 10:49:16;;;;;;;5.30;2.90;;;;;;;12.66;66.25;100540.91;4935862;29;20055;-78
2023/03/17 10:51:49;;;;;;;5.75;3.00;;;;;;;12.71;64.29;100543.69;4942997;29;20042;-78
2023/03/17 10:54:19;;;;;;;5.97;3.05;;;;;;;12.88;63.26;100549.13;4932429;29;20122;-78
2023/03/17 10:56:54;;;;;;;6.57;2.83;;;;;;;12.98;64.07;100546.56;4948842;29;20031;-78
2023/03/17 10:59:27;;;;;;;8.60;3.30;;;;;;;13.04;63.05;100536.59;4926902;29;20118;-78
2023/03/17 11:02:00;;;;;;;6.53;2.90;;;;;;;13.07;63.69;100526.06;4930470;29;20032;-78
2023/03/17 11:05:39;;;;;;;7.88;3.38;;;;;;;13.12;63.62;100523.41;4932861;29;20126;-80
2023/03/17 11:08:29;;;;;;;8.70;3.25;;;;;;;13.18;62.57;100521.59;4836879;29;20046;-76
2023/03/17 11:10:55;;;;;;;10.10;3.53;;;;;;;13.33;62.84;100523.72;4891932;29;20032;-76
2023/03/17 11:13:31;;;;;;;7.10;3.65;;;;;;;13.38;62.36;100526.50;4931878;29;20039;-75
2023/03/17 11:16:20;;;;;;;15.73;3.08;;;;;;;13.49;62.52;100527.47;4933929;29;20031;-77
2023/03/17 11:18:50;;;;;;;7.85;3.47;;;;;;;13.52;60.79;100520.72;4931932;29;20024;-76
2023/03/17 11:21:34;;;;;;;7.15;3.10;;;;;;;13.55;61.34;100512.84;4933516;29;20035;-75
2023/03/17 11:24:31;;;;;;;5.60;3.10;;;;;;;13.60;61.46;100512.94;4939984;29;20031;-80
2023/03/17 11:27:33;;;;;;;9.43;3.65;;;;;;;13.68;61.90;100506.22;4932622;29;20116;-78
2023/03/17 11:30:13;;;;;;;;;;;;;;;13.74;62.11;100516.09;4931493;29;20039;-77
2023/03/17 11:32:47;;;;;;;6.43;3.85;;;;;;;13.75;60.78;100517.75;4933276;29;20698;-78
2023/03/17 12:47:11;;;;;;;8.57;4.00;;;;;;;15.47;58.51;100467.84;5361300;23;20030;-79
2023/03/17 16:20:32;;;;;;;4.20;1.60;;;;;;;16.21;54.07;100353.13;4823391;29;20041;-79
2023/03/17 16:45:22;;;;;;;4.65;1.60;;;;;;;15.82;51.98;100370.03;5346051;23;20100;-76
2023/03/17 16:48:48;;;;;;;4.65;1.90;;;;;;;15.76;52.72;100377.38;4806441;29;20484;-79
2023/03/17 16:51:16;;;;;;;4.13;1.85;;;;;;;15.65;52.63;100390.16;4778074;29;20070;-74
2023/03/17 16:54:20;;;;;;;2.17;1.88;;;;;;;15.60;53.67;100380.06;4768367;30;20053;-78
2023/03/17 16:56:46;;;;;;;6.03;1.95;;;;;;;15.59;52.31;100393.97;4764750;30;20039;-75
2023/03/17 16:59:20;;;;;;;4.88;1.98;;;;;;;15.56;53.52;100391.78;4768904;30;20506;-75
2023/03/17 17:01:45;;;;;;;3.03;1.83;;;;;;;15.52;52.88;100399.72;4766071;30;20376;-74
2023/03/17 17:04:10;;;;;;;6.13;1.73;;;;;;;15.48;51.25;100390.41;4771007;30;20042;-74
2023/03/17 17:06:36;;;;;;;6.88;1.80;;;;;;;15.44;52.54;100392.03;4770494;30;20028;-75
2023/03/17 17:09:01;;;;;;;3.65;1.80;;;;;;;15.39;52.24;100390.13;4770108;30;20041;-75
2023/03/17 17:11:26;;;;;;;3.20;1.60;;;;;;;15.34;53.47;100409.19;4769315;30;20461;-74
2023/03/17 17:13:52;;;;;;;6.90;1.67;;;;;;;15.31;51.93;100403.44;4779943;30;20035;-75
2023/03/17 17:16:29;;;;;;;5.85;1.88;;;;;;;15.29;52.64;100411.88;4786430;30;20399;-74
2023/03/17 17:18:55;;;;;;;3.70;1.50;;;;;;;15.26;51.74;100412.44;4787169;30;20402;-77
2023/03/17 17:21:21;;;;;;;5.28;1.75;;;;;;;15.18;52.69;100418.41;4786389;30;20460;-76
2023/03/17 17:23:47;;;;;;;3.85;1.77;;;;;;;15.15;52.53;100416.22;4783421;29;20042;-77
2023/03/17 17:26:12;;;;;;;3.53;1.80;;;;;;;15.12;52.19;100409.38;4770745;30;20436;-77
2023/03/17 17:28:39;;;;;;;3.85;1.73;;;;;;;15.07;52.44;100409.38;4769374;30;20039;-76
2023/03/17 17:31:08;;;;;;;4.47;1.77;;;;;;;15.02;52.86;100415.63;4768409;30;20423;-77
2023/03/17 17:33:35;;;;;;;3.47;1.65;;;;;;;15.02;51.46;100417.50;4769945;30;20036;-74
2023/03/17 17:36:02;;;;;;;3.03;1.70;;;;;;;14.99;51.30;100429.78;4770337;30;20039;-77
2023/03/17 17:38:29;;;;;;;5.57;2.05;;;;;;;14.96;52.20;100432.19;4770197;30;20031;-75
2023/03/17 17:40:56;;;;;;;6.38;1.92;;;;;;;14.91;51.57;100441.16;4770155;30;20027;-78
2023/03/17 17:43:23;;;;;;;4.13;2.13;;;;;;;14.89;52.42;100440.59;4762037;30;20024;-75
2023/03/17 17:45:49;;;;;;;9.70;2.17;;;;;;;14.85;52.39;100434.03;4761628;30;20023;-76
2023/03/17 17:48:24;;;;;;;4.55;2.10;;;;;;;14.82;51.78;100440.81;4775464;29;20035;-76
2023/03/17 17:50:51;;;;;;;5.78;2.10;;;;;;;14.78;52.34;100442.47;4800263;29;20047;-75
2023/03/17 17:53:16;;;;;;;6.70;2.08;;;;;;;14.74;52.17;100441.34;4805333;29;20106;-76
2023/03/17 17:55:44;;;;;;;4.82;1.90;;;;;;;14.68;53.50;100442.38;4798388;29;20113;-76
2023/03/17 17:58:14;;;;;;;3.95;2.00;;;;;;;14.65;53.48;100438.28;4800003;29;20042;-76
2023/03/17 18:00:40;;;;;;;3.67;1.88;;;;;;;14.62;52.73;100444.25;4806521;29;20042;-76
2023/03/17 18:03:05;;;;;;;4.50;1.83;;;;;;;14.60;53.25;100443.66;4801859;29;20039;-74
2023/03/17 18:05:31;;;;;;;5.28;1.90;;;;;;;14.59;52.41;100446.66;4802212;29;20033;-77
2023/03/17 18:08:01;;;;;;;6.35;2.13;;;;;;;14.55;52.30;100446.34;4801467;29;20088;-75
2023/03/17 18:10:28;;;;;;;9.73;2.38;;;;;;;14.52;53.55;100449.59;4801158;29;20023;-75
2023/03/17 18:13:16;;;;;;;8.23;2.50;;;;;;;14.53;53.14;100446.59;4807116;29;20073;-76
2023/03/17 18:15:41;;;;;;;5.85;2.38;;;;;;;14.45;54.01;100443.56;4810337;29;20023;-77
2023/03/17 18:18:07;;;;;;;6.07;2.10;;;;;;;14.42;53.70;100441.34;4805535;29;20042;-73
2023/03/17 18:20:33;;;;;;;6.90;2.20;;;;;;;14.44;53.03;100450.09;4804215;29;20527;-73
2023/03/17 18:22:59;;;;;;;6.35;2.20;;;;;;;14.38;53.70;100445.69;4817353;29;20022;-73
2023/03/17 18:25:25;;;;;;;2.97;2.00;;;;;;;14.31;54.90;100451.34;4837742;29;20168;-75
2023/03/17 18:27:51;;;;;;;7.25;2.30;;;;;;;14.31;54.39;100452.16;4818001;29;20089;-75
2023/03/17 18:30:26;;;;;;;8.30;2.33;;;;;;;14.28;54.61;100460.84;4804289;29;20119;-73
2023/03/17 18:32:54;;;;;;;7.38;2.10;;;;;;;14.28;54.14;100452.69;4803448;29;20038;-75
2023/03/17 18:35:21;;;;;;;7.28;2.10;;;;;;;14.20;55.51;100455.88;4805500;29;20046;-74
2023/03/17 18:37:49;;;;;;;7.57;2.10;;;;;;;14.24;54.09;100459.72;4805408;29;20034;-76
2023/03/17 18:40:15;;;;;;;3.10;1.92;;;;;;;14.19;55.48;100459.66;4803605;29;20038;-76
2023/03/17 18:42:44;;;;;;;6.15;1.77;;;;;;;14.15;55.71;100458.56;4802090;29;20030;-76
2023/03/17 18:45:11;;;;;;;6.47;2.30;;;;;;;14.10;56.49;100455.78;4812647;29;20152;-73
2023/03/17 18:47:37;;;;;;;7.75;2.40;;;;;;;14.06;56.38;100458.19;4803729;29;20033;-74
2023/03/17 18:50:11;;;;;;;4.65;1.92;;;;;;;14.07;55.70;100450.84;4803803;29;20078;-74
2023/03/17 18:52:49;;;;;;;4.35;2.35;;;;;;;14.06;56.61;100463.66;4804146;29;20043;-74
2023/03/17 18:55:15;;;;;;;3.40;1.90;;;;;;;14.02;56.55;100462.50;4805220;29;20460;-76
2023/03/17 18:57:41;;;;;;;7.82;2.30;;;;;;;14.05;56.12;100469.34;4803254;29;20122;-74
2023/03/17 19:00:08;;;;;;;8.05;2.38;;;;;;;14.00;56.36;100473.66;4805976;29;20042;-73
2023/03/17 19:02:34;;;;;;;7.78;2.40;;;;;;;13.98;57.20;100464.94;4806149;29;20038;-75
2023/03/17 19:05:00;;;;;;;5.13;2.55;;;;;;;14.00;55.92;100462.75;4807687;29;20035;-76
2023/03/17 19:07:25;;;;;;;6.00;2.17;;;;;;;13.96;56.54;100461.63;4807505;29;20425;-76
2023/03/17 19:09:51;;;;;;;4.25;2.08;;;;;;;13.97;56.65;100467.91;4807682;29;20360;-75
2023/03/17 19:12:17;;;;;;;4.85;2.15;;;;;;;13.95;56.89;100470.88;4809070;29;20027;-74
2023/03/17 19:14:48;;;;;;;4.40;2.10;;;;;;;13.94;56.88;100465.72;4808967;29;20030;-73
2023/03/17 19:17:13;;;;;;;5.90;2.35;;;;;;;13.93;57.38;100467.59;4810808;29;20531;-72
2023/03/17 19:19:40;;;;;;;5.78;2.38;;;;;;;13.92;56.25;100465.97;4825666;29;20042;-76
2023/03/17 19:22:06;;;;;;;6.05;2.28;;;;;;;13.93;57.17;100478.47;4825479;29;20776;-73
2023/03/17 19:24:36;;;;;;;7.45;2.60;;;;;;;13.89;57.37;100466.47;4826527;29;20034;-75
2023/03/17 19:27:02;;;;;;;6.07;2.38;;;;;;;13.90;57.91;100476.25;4825718;29;20090;-75
2023/03/17 19:29:28;;;;;;;4.75;2.33;;;;;;;13.87;59.61;100471.34;4809444;29;20039;-74
2023/03/17 19:31:53;;;;;;;4.22;2.05;;;;;;;13.89;58.36;100473.78;4824256;29;20034;-74
2023/03/17 19:34:19;;;;;;;6.57;2.30;;;;;;;13.86;59.14;100469.72;4825422;29;20030;-75
2023/03/17 19:36:47;;;;;;;6.25;2.22;;;;;;;13.85;58.44;100470.78;4811206;29;20041;-75
2023/03/17 19:39:13;;;;;;;6.88;2.33;;;;;;;13.85;58.29;100476.22;4798279;29;20061;-74
2023/03/17 19:41:41;;;;;;;6.88;2.40;;;;;;;13.83;59.88;100472.94;4790078;29;20031;-73
2023/03/17 19:44:06;;;;;;;5.55;2.35;;;;;;;13.83;58.46;100473.75;4809490;29;20425;-74
2023/03/17 19:46:33;;;;;;;5.18;2.40;;;;;;;13.83;58.93;100467.50;4824795;29;20034;-76
2023/03/17 19:48:58;;;;;;;6.68;2.65;;;;;;;13.79;59.57;100471.81;4825006;29;20081;-74
2023/03/17 19:51:26;;;;;;;5.97;2.70;;;;;;;13.79;59.46;100469.91;4824898;29;20066;-75
2023/03/17 19:53:53;;;;;;;6.47;2.60;;;;;;;13.79;59.03;100471.81;4818524;29;20121;-74
2023/03/17 19:56:18;;;;;;;5.55;2.35;;;;;;;13.77;60.56;100472.06;4806962;29;20503;-75
2023/03/17 19:58:44;;;;;;;8.75;2.70;;;;;;;13.76;60.52;100469.59;4820926;29;20026;-75
2023/03/17 20:01:10;;;;;;;5.53;2.60;;;;;;;13.75;61.36;100462.50;4823750;29;20482;-74
2023/03/17 20:03:38;;;;;;;8.00;2.95;;;;;;;13.75;59.86;100460.63;4825884;29;20033;-74
2023/03/17 20:06:07;;;;;;;6.93;2.55;;;;;;;13.74;61.12;100458.13;4826419;29;20447;-74
2023/03/17 20:08:35;;;;;;;6.40;2.35;;;;;;;13.72;60.55;100463.03;4815802;29;20043;-73
2023/03/17 20:11:01;;;;;;;9.05;2.40;;;;;;;13.71;61.09;100472.25;4804473;29;20542;-74
2023/03/17 20:13:30;;;;;;;6.75;2.97;;;;;;;13.73;60.56;100472.84;4806628;29;20415;-76
2023/03/17 20:15:56;;;;;;;9.02;2.88;;;;;;;13.69;61.61;100477.13;4819968;29;20451;-75
2023/03/17 20:18:24;;;;;;;5.22;2.67;;;;;;;13.69;61.52;100485.28;4825836;29;20038;-76
2023/03/17 20:20:59;;;;;;;7.28;2.88;;;;;;;13.67;61.75;100490.97;4824455;29;20040;-76
2023/03/17 20:23:25;;;;;;;9.73;2.85;;;;;;;13.67;63.36;100490.97;4825873;29;20038;-74
2023/03/17 20:25:53;;;;;;;6.85;3.28;;;;;;;13.68;61.88;100491.78;4813042;29;20573;-74
2023/03/17 20:28:23;;;;;;;5.55;2.92;;;;;;;13.63;62.20;100484.41;4805135;29;20129;-76
2023/03/17 20:30:58;;;;;;;5.82;2.78;;;;;;;13.61;64.33;100490.09;4807718;29;20034;-74
2023/03/17 20:33:24;;;;;;;9.05;3.15;;;;;;;13.62;62.74;100493.66;4807348;29;20056;-76
2023/03/17 20:35:59;;;;;;;9.75;3.67;;;;;;;13.62;63.30;100489.03;4820759;29;20129;-75
2023/03/17 20:38:24;;;;;;;4.28;2.75;;;;;;;13.60;61.69;100488.47;4825900;29;20447;-76
2023/03/17 20:41:02;;;;;;;8.70;3.28;;;;;;;13.59;62.88;100494.16;4825227;29;20451;-75
2023/03/17 20:44:00;;;;;;;5.95;2.65;;;;;;;13.54;64.79;100497.63;4802153;29;20098;-77
2023/03/17 20:46:26;;;;;;;9.25;3.22;;;;;;;13.56;64.54;100500.09;4786451;29;20491;-79
2023/03/17 20:51:46;;;;;;;5.78;3.20;;;;;;;13.54;63.92;100505.78;4806458;29;20049;-79
2023/03/17 20:54:17;;;;;;;7.20;3.20;;;;;;;13.54;64.40;100511.22;4806572;29;20031;-77
2023/03/17 20:56:46;;;;;;;7.32;3.30;;;;;;;13.52;65.35;100502.50;4832015;29;20026;-79
2023/03/17 20:59:12;;;;;;;5.75;3.28;;;;;;;13.51;65.58;100514.44;4823303;29;20034;-78
2023/03/17 21:01:39;;;;;;;8.88;3.58;;;;;;;13.50;65.74;100509.25;4821512;29;20018;-77
2023/03/17 21:04:07;;;;;;;8.15;3.55;;;;;;;13.48;66.57;100509.50;4809121;29;20076;-77
2023/03/17 21:06:38;;;;;;;10.32;3.85;;;;;;;13.48;66.67;100520.38;4814607;29;20110;-75
2023/03/17 21:09:04;;;;;;;9.27;3.80;;;;;;;13.49;67.39;100521.22;4823061;29;20036;-76
2023/03/17 21:11:30;;;;;;;10.27;3.83;;;;;;;13.46;67.95;100525.25;4823842;29;20459;-74
2023/03/17 21:14:06;;;;;;;9.00;4.15;;;;;;;13.49;67.42;100515.78;4823474;29;20542;-77
2023/03/17 21:16:33;;;;;;;9.75;4.22;;;;;;;13.45;67.88;100507.28;4822549;29;20058;-79
2023/03/17 21:19:01;;;;;;;10.90;4.13;;;;;;;13.46;67.83;100503.50;4823044;29;20527;-77
2023/03/17 21:21:30;;;;;;;11.05;4.43;;;;;;;13.43;68.82;100504.00;4806355;29;20434;-75
2023/03/17 21:24:00;;;;;;;9.82;4.47;;;;;;;13.42;69.58;100497.75;4805105;29;20027;-75
2023/03/17 21:26:28;;;;;;;12.52;4.50;;;;;;;13.37;69.77;100492.25;4814183;29;20030;-75
2023/03/17 21:29:02;;;;;;;11.27;4.55;;;;;;;13.40;69.72;100507.22;4823125;29;20091;-77
2023/03/17 21:31:32;;;;;;;10.82;4.18;;;;;;;13.34;70.90;100517.22;4823611;29;20033;-79
2023/03/17 21:34:00;;;;;;;12.52;4.90;;;;;;;13.33;71.35;100517.44;4822872;29;20019;-75
2023/03/17 21:36:26;;;;;;;12.73;5.25;;;;;;;13.29;71.95;100517.94;4820518;29;20078;-73
2023/03/17 21:38:52;;;;;;;10.55;5.50;;;;;;;13.26;72.81;100523.88;4816235;29;20398;-73
2023/03/17 21:41:32;;;;;;;10.68;5.38;;;;;;;13.24;74.19;100531.47;4817893;29;20026;-73
2023/03/17 21:44:02;;;;;;;10.52;4.82;;;;;;;13.19;75.58;100527.84;4824367;29;20046;-75
2023/03/17 21:46:32;;;;;;;7.63;4.55;;;;;;;13.20;75.32;100533.03;4823745;29;20038;-74
2023/03/17 21:49:04;;;;;;;10.98;5.25;;;;;;;13.19;75.87;100538.72;4822662;29;20133;-74
2023/03/17 21:51:30;;;;;;;11.35;5.20;;;;;;;13.18;77.87;100545.22;4824554;29;20077;-72
2023/03/17 21:54:02;;;;;;;13.45;5.40;;;;;;;13.18;76.58;100537.91;4815103;29;20055;-75
2023/03/17 21:56:28;;;;;;;12.00;5.97;;;;;;;13.19;77.52;100534.09;4820328;29;20083;-75
2023/03/17 21:58:54;;;;;;;11.73;5.40;;;;;;;13.19;77.54;100536.81;4822821;29;20030;-72
2023/03/17 22:01:20;;;;;;;14.10;5.85;;;;;;;13.15;78.94;100538.41;4820704;29;20037;-75
2023/03/17 22:03:46;;;;;;;9.93;5.47;;;;;;;13.17;78.53;100535.44;4822806;29;20026;-75
2023/03/17 22:06:15;;;;;;;12.13;6.22;;;;;;;13.16;80.69;100539.22;4814339;29;20034;-75
2023/03/17 22:08:41;;;;;;;11.68;5.95;;;;;;;13.16;79.26;100540.03;4805995;29;20041;-74
2023/03/17 22:11:09;;;;;;;17.27;6.35;;;;;;;13.15;79.57;100552.00;4804148;29;20087;-76
2023/03/17 22:13:35;;;;;;;16.20;8.23;;;;;;;13.12;79.95;100542.44;4805586;29;20145;-74